createdAt,value
2023-02-26T00:02:06.980Z,98.35
2023-02-26T00:07:06.878Z,98.35
2023-02-26T00:12:06.860Z,98.14
2023-02-26T00:17:06.749Z,97.62
2023-02-26T00:22:06.582Z,97.62
2023-02-26T00:27:06.592Z,97.31
2023-02-26T00:32:06.530Z,97.41
2023-02-26T00:37:06.418Z,97.10
2023-02-26T00:42:06.440Z,97.10
2023-02-26T00:47:06.276Z,97.72
2023-02-26T00:52:06.216Z,97.83
2023-02-26T00:57:06.927Z,97.94
2023-02-26T01:02:06.081Z,97.41
2023-02-26T01:07:06.048Z,97.72
2023-02-26T01:12:06.084Z,97.72
2023-02-26T01:17:05.889Z,97.20
2023-02-26T01:22:05.891Z,97.04
2023-02-26T01:27:05.820Z,97.72
2023-02-26T01:32:05.838Z,97.94
2023-02-26T01:37:05.639Z,97.67
2023-02-26T01:42:05.660Z,97.98
2023-02-26T01:47:05.610Z,98.56
2023-02-26T01:52:05.466Z,97.98
2023-02-26T01:57:05.482Z,98.35
2023-02-26T02:02:05.438Z,97.83
2023-02-26T02:07:05.321Z,97.94
2023-02-26T02:12:05.297Z,97.52
2023-02-26T02:17:05.219Z,97.00
2023-02-26T02:22:05.205Z,97.10
2023-02-26T02:27:05.027Z,97.10
2023-02-26T02:32:05.219Z,97.00
2023-02-26T02:37:05.077Z,96.89
2023-02-26T02:42:04.936Z,97.10
2023-02-26T02:47:04.949Z,97.00
2023-02-26T02:52:04.871Z,97.41
2023-02-26T02:57:04.690Z,97.83
2023-02-26T03:02:04.627Z,98.04
2023-02-26T03:07:04.570Z,98.35
2023-02-26T03:12:04.581Z,98.35
2023-02-26T03:17:04.428Z,98.25
2023-02-26T03:22:04.382Z,97.62
2023-02-26T03:27:04.247Z,97.10
2023-02-26T03:32:04.276Z,96.78
2023-02-26T03:37:04.193Z,96.89
2023-02-26T03:42:04.151Z,96.47
2023-02-26T03:47:04.028Z,96.05
2023-02-26T03:52:03.969Z,96.58
2023-02-26T03:57:03.885Z,96.05
2023-02-26T04:02:04.015Z,95.74
2023-02-26T04:07:03.772Z,96.16
2023-02-26T04:12:03.717Z,96.58
2023-02-26T04:17:03.715Z,96.68
2023-02-26T04:22:03.589Z,96.58
2023-02-26T04:27:03.601Z,96.78
2023-02-26T04:32:03.566Z,96.31
2023-02-26T04:37:03.405Z,95.95
2023-02-26T04:42:03.291Z,94.59
2023-02-26T04:47:03.227Z,94.80
2023-02-26T04:52:03.258Z,94.17
2023-02-26T04:57:03.115Z,93.44
2023-02-26T05:02:03.116Z,93.44
2023-02-26T05:07:03.047Z,93.76
2023-02-26T05:12:02.954Z,93.76
2023-02-26T05:17:02.854Z,93.02
2023-02-26T05:22:02.871Z,93.23
2023-02-26T05:27:02.819Z,92.82
2023-02-26T05:32:02.660Z,93.02
2023-02-26T05:37:02.603Z,93.33
2023-02-26T05:42:03.225Z,92.92
2023-02-26T05:47:02.592Z,93.13
2023-02-26T05:52:02.492Z,93.65
2023-02-26T05:57:04.142Z,93.76
2023-02-26T06:02:02.346Z,93.54
2023-02-26T06:07:02.356Z,93.02
2023-02-26T06:12:02.175Z,93.44
2023-02-26T06:17:02.190Z,93.44
2023-02-26T06:22:02.090Z,93.86
2023-02-26T06:27:02.032Z,93.71
2023-02-26T06:32:02.040Z,93.71
2023-02-26T06:37:01.910Z,92.88
2023-02-26T06:42:01.966Z,93.29
2023-02-26T06:47:01.721Z,92.88
2023-02-26T06:52:01.620Z,91.94
2023-02-26T06:57:01.728Z,92.14
2023-02-26T07:02:01.674Z,91.47
2023-02-26T07:07:01.504Z,91.79
2023-02-26T07:12:01.433Z,91.16
2023-02-26T07:17:01.445Z,90.64
2023-02-26T07:22:01.491Z,90.53
2023-02-26T07:27:01.293Z,90.22
2023-02-26T07:32:01.389Z,91.22
2023-02-26T07:37:01.156Z,90.66
2023-02-26T07:42:01.030Z,89.87
2023-02-26T07:47:00.945Z,90.77
2023-02-26T07:52:00.951Z,90.14
2023-02-26T07:57:00.820Z,89.51
2023-02-26T08:02:00.763Z,89.51
2023-02-26T08:07:01.038Z,88.99
2023-02-26T08:12:00.667Z,89.20
2023-02-26T08:17:00.724Z,89.41
2023-02-26T08:22:00.494Z,89.62
2023-02-26T08:27:00.443Z,89.10
2023-02-26T08:32:00.568Z,88.95
2023-02-26T08:37:00.414Z,88.81
2023-02-26T08:42:00.222Z,86.20
2023-02-26T08:47:00.480Z,86.75
2023-02-26T08:52:00.132Z,84.31
2023-02-26T08:57:00.012Z,84.48
2023-02-26T09:02:00.004Z,83.37
2023-02-26T09:06:59.946Z,83.75
2023-02-26T09:11:59.926Z,84.14
2023-02-26T09:16:59.818Z,83.34
2023-02-26T09:21:59.695Z,83.73
2023-02-26T09:26:59.668Z,83.52
2023-02-26T09:31:59.905Z,83.48
2023-02-26T09:36:59.498Z,82.54
2023-02-26T09:41:59.582Z,82.40
2023-02-26T09:46:59.385Z,81.32
2023-02-26T09:51:59.390Z,80.91
2023-02-26T09:56:59.291Z,79.55
2023-02-26T10:01:59.315Z,80.11
2023-02-26T10:06:59.183Z,78.20
2023-02-26T10:11:59.057Z,79.45
2023-02-26T10:16:59.012Z,78.62
2023-02-26T10:21:59.254Z,78.93
2023-02-26T10:26:58.864Z,77.69
2023-02-26T10:31:58.934Z,78.24
2023-02-26T10:36:58.803Z,78.93
2023-02-26T10:41:59.174Z,77.83
2023-02-26T10:46:58.618Z,78.24
2023-02-26T10:51:58.619Z,77.75
2023-02-26T10:56:58.527Z,78.17
2023-02-26T11:01:58.449Z,76.82
2023-02-26T11:06:58.378Z,76.29
2023-02-26T11:11:58.271Z,74.32
2023-02-26T11:16:58.288Z,73.36
2023-02-26T11:21:58.159Z,73.32
2023-02-26T11:26:58.293Z,74.01
2023-02-26T11:31:58.421Z,73.87
2023-02-26T11:36:57.988Z,73.91
2023-02-26T11:41:57.941Z,75.26
2023-02-26T11:46:57.854Z,74.29
2023-02-26T11:51:57.756Z,74.74
2023-02-26T11:56:57.690Z,73.28
2023-02-26T12:01:57.712Z,74.18
2023-02-26T12:06:57.618Z,73.87
2023-02-26T12:11:57.488Z,73.87
2023-02-26T12:16:57.423Z,74.29
2023-02-26T12:21:57.350Z,73.53
2023-02-26T12:26:57.291Z,73.57
2023-02-26T12:31:57.337Z,73.18
2023-02-26T12:36:57.176Z,73.32
2023-02-26T12:41:57.085Z,72.90
2023-02-26T12:46:57.167Z,73.74
2023-02-26T12:51:56.990Z,72.69
2023-02-26T12:56:56.965Z,74.43
2023-02-26T13:02:01.372Z,75.40
2023-02-26T13:06:56.759Z,75.81
2023-02-26T13:11:56.721Z,77.03
2023-02-26T13:16:56.648Z,75.43
2023-02-26T13:21:56.585Z,74.60
2023-02-26T13:26:56.577Z,74.11
2023-02-26T13:31:56.766Z,74.98
2023-02-26T13:36:56.385Z,75.95
2023-02-26T13:41:56.348Z,79.38
2023-02-26T13:46:56.278Z,81.32
2023-02-26T13:51:56.253Z,81.53
2023-02-26T13:56:56.122Z,78.41
2023-02-26T14:01:56.066Z,75.67
2023-02-26T14:06:56.449Z,76.61
2023-02-26T14:11:56.100Z,80.32
2023-02-26T14:16:56.135Z,80.15
2023-02-26T14:21:56.149Z,82.13
2023-02-26T14:26:55.837Z,81.71
2023-02-26T14:31:55.849Z,81.81
2023-02-26T14:36:55.660Z,77.83
2023-02-26T14:41:55.565Z,75.88
2023-02-26T14:46:55.543Z,73.60
2023-02-26T14:51:55.461Z,72.24
2023-02-26T14:56:55.397Z,71.20
2023-02-26T15:01:55.331Z,71.83
2023-02-26T15:06:55.251Z,71.41
2023-02-26T15:11:55.212Z,80.19
2023-02-26T15:17:01.844Z,88.32
2023-02-26T15:21:55.136Z,88.16
2023-02-26T15:26:54.975Z,88.89
2023-02-26T15:31:55.083Z,88.68
2023-02-26T15:36:54.999Z,87.32
2023-02-26T15:41:54.815Z,87.12
2023-02-26T15:46:54.803Z,87.63
2023-02-26T15:51:54.683Z,87.01
2023-02-26T15:56:55.203Z,86.84
2023-02-26T16:01:54.595Z,85.13
2023-02-26T16:06:54.448Z,84.16
2023-02-26T16:11:54.399Z,84.26
2023-02-26T16:16:54.366Z,83.39
2023-02-26T16:21:54.749Z,83.39
2023-02-26T16:26:54.217Z,84.05
2023-02-26T16:31:54.316Z,84.26
2023-02-26T16:36:54.110Z,84.92
2023-02-26T16:41:54.443Z,85.13
2023-02-26T16:46:54.022Z,85.49
2023-02-26T16:51:53.895Z,85.90
2023-02-26T16:56:53.829Z,86.46
2023-02-26T17:01:53.742Z,86.36
2023-02-26T17:06:53.688Z,86.36
2023-02-26T17:11:53.621Z,85.49
2023-02-26T17:16:53.569Z,85.24
2023-02-26T17:21:53.475Z,83.36
2023-02-26T17:26:53.456Z,82.90
2023-02-26T17:31:53.515Z,81.09
2023-02-26T17:36:53.332Z,82.38
2023-02-26T17:41:53.271Z,84.92
2023-02-26T17:46:53.193Z,86.63
2023-02-26T17:51:53.144Z,87.51
2023-02-26T17:56:53.197Z,89.11
2023-02-26T18:01:53.014Z,89.32
2023-02-26T18:06:52.932Z,89.74
2023-02-26T18:11:52.873Z,90.20
2023-02-26T18:16:53.037Z,90.83
2023-02-26T18:21:52.861Z,91.94
2023-02-26T18:26:52.718Z,92.63
2023-02-26T18:31:53.033Z,90.64
2023-02-26T18:36:52.598Z,89.95
2023-02-26T18:41:52.636Z,90.37
2023-02-26T18:46:52.487Z,90.68
2023-02-26T18:51:52.442Z,90.78
2023-02-26T18:56:52.288Z,91.00
2023-02-26T19:01:52.802Z,92.00
2023-02-26T19:06:52.599Z,90.78
2023-02-26T19:11:52.201Z,90.89
2023-02-26T19:16:52.458Z,89.47
2023-02-26T19:21:51.965Z,89.05
2023-02-26T19:26:51.970Z,90.52
2023-02-26T19:31:52.009Z,90.31
2023-02-26T19:36:51.957Z,90.31
2023-02-26T19:41:51.808Z,90.66
2023-02-26T19:46:51.652Z,92.02
2023-02-26T19:51:51.633Z,89.09
2023-02-26T19:56:51.537Z,89.65
2023-02-26T20:01:51.571Z,88.57
2023-02-26T20:06:51.506Z,88.78
2023-02-26T20:11:51.343Z,87.21
2023-02-26T20:16:51.260Z,88.57
2023-02-26T20:21:51.267Z,87.94
2023-02-26T20:26:51.192Z,86.31
2023-02-26T20:31:51.224Z,86.52
2023-02-26T20:36:51.000Z,85.05
2023-02-26T20:41:51.279Z,83.00
2023-02-26T20:46:51.479Z,83.83
2023-02-26T20:51:51.542Z,83.35
2023-02-26T20:56:50.978Z,84.92
2023-02-26T21:01:50.909Z,85.48
2023-02-26T21:06:50.980Z,85.69
2023-02-26T21:11:50.564Z,90.51
2023-02-26T21:16:50.648Z,89.50
2023-02-26T21:21:50.485Z,88.77
2023-02-26T21:26:50.381Z,88.87
2023-02-26T21:31:50.505Z,86.78
2023-02-26T21:36:50.275Z,86.46
2023-02-26T21:41:50.192Z,86.71
2023-02-26T21:46:50.117Z,86.08
2023-02-26T21:51:50.039Z,88.60
2023-02-26T21:56:50.080Z,87.45
2023-02-26T22:01:50.021Z,87.70
2023-02-26T22:06:49.914Z,87.59
2023-02-26T22:11:49.805Z,88.47
2023-02-26T22:16:49.868Z,90.42
2023-02-26T22:21:49.693Z,88.01
2023-02-26T22:26:49.706Z,87.28
2023-02-26T22:31:49.678Z,85.81
2023-02-26T22:36:49.495Z,85.91
2023-02-26T22:41:49.605Z,85.71
2023-02-26T22:46:49.501Z,86.33
2023-02-26T22:51:49.368Z,86.54
2023-02-26T22:56:49.292Z,86.65
2023-02-26T23:01:49.307Z,87.70
2023-02-26T23:06:49.214Z,87.24
2023-02-26T23:11:49.128Z,87.07
2023-02-26T23:16:49.042Z,87.80
2023-02-26T23:21:48.966Z,87.74
2023-02-26T23:26:48.929Z,87.84
2023-02-26T23:31:48.957Z,89.00
2023-02-26T23:36:48.762Z,88.41
2023-02-26T23:41:48.773Z,89.98
2023-02-26T23:46:48.627Z,90.76
2023-02-26T23:51:48.591Z,91.39
2023-02-26T23:56:48.521Z,90.40
